MSC Fillippa — A8XT7 — position and weather

sailwx.info

Track history (hours):
 
Tides and Currents Weather Stations Pressure Air Temp Water Temp Dewpoint Dewpoint Depression Visibility Wind Speed Wind Dir Waves Ship Positions

MSC Fillippa

Last reported at 2017-Nov-18 18:55 UTC. Time now 2017-Nov-19 06:57 UTC.
Position N 40°55' E 001°43'.

Length 366 m; draft 14.6 m.

Type: Ship (hazmat cat A). MMSI: 636092168.

Date/timePositionNaut miles runAvg speedWind from/ knotsBaromVisibWave heightAir tempDewpointWater temp
2017-Nov-18 18:55N 40°55' E 001°43'614.7
2017-Nov-18 18:29N 40°60' E 001°49'714.9
2017-Nov-18 18:00N 41°05' E 001°56'714.3
2017-Nov-18 17:31N 41°10' E 002°02'713.5
2017-Nov-18 17:00N 41°15' E 002°08'4 5.5
2017-Nov-18 16:17N 41°19' E 002°09'1 0.1
2017-Nov-18 09:45N 41°18' E 002°09'0 0.0
2017-Nov-18 07:12N 41°18' E 002°09'0 0.0
2017-Nov-18 07:00N 41°18' E 002°09'0 0.0
2017-Nov-18 06:23N 41°18' E 002°09'0 0.0
2017-Nov-18 05:28N 41°18' E 002°09'0 0.5
2017-Nov-18 04:58N 41°19' E 002°09'1 1.7
2017-Nov-18 04:22N 41°19' E 002°10'2 4.2
2017-Nov-18 03:58N 41°17' E 002°11'61114.2
2017-Nov-16 08:53N 36°36' E 013°48'815.0
2017-Nov-16 08:23N 36°34' E 013°57'615.1
2017-Nov-16 08:00N 36°32' E 014°04'815.3
2017-Nov-16 07:30N 36°30' E 014°13'815.1
2017-Nov-16 07:00N 36°27' E 014°22'715.0
2017-Nov-16 06:30N 36°25' E 014°31'814.8
2017-Nov-16 06:00N 36°24' E 014°40'714.8
2017-Nov-16 05:30N 36°24' E 014°49'41016.0
2017-Nov-15 03:56N 36°34' E 023°19'1019.1
2017-Nov-15 03:24N 36°43' E 023°24'4518.6
2017-Nov-15 00:59N 37°26' E 023°43'918.4
2017-Nov-15 00:31N 37°34' E 023°44'918.7
2017-Nov-15 00:00N 37°43' E 023°40'918.1
2017-Nov-14 23:30N 37°51' E 023°36'510.7
2017-Nov-14 23:00N 37°57' E 023°36'1 1.5
2017-Nov-14 22:30N 37°57' E 023°36'0 0.1
2017-Nov-14 21:59N 37°57' E 023°36'0 0.0
2017-Nov-14 21:29N 37°57' E 023°36'0 0.0
2017-Nov-14 20:59N 37°57' E 023°36'0 0.0
2017-Nov-14 20:29N 37°57' E 023°36'0 0.0
2017-Nov-14 19:59N 37°57' E 023°36'0 0.0
2017-Nov-14 19:29N 37°57' E 023°36'0 0.0
2017-Nov-14 19:00N 37°57' E 023°36'0 0.0
2017-Nov-14 18:30N 37°57' E 023°36'0 0.0
2017-Nov-14 18:00N 37°57' E 023°36'0 0.0
2017-Nov-14 17:30N 37°57' E 023°36'0 0.0
2017-Nov-14 17:00N 37°57' E 023°36'0 0.0
2017-Nov-14 16:30N 37°57' E 023°36'0 0.0
2017-Nov-14 16:00N 37°57' E 023°36'0 0.0
2017-Nov-14 15:30N 37°57' E 023°36'0 0.0
2017-Nov-14 15:00N 37°57' E 023°36'0 0.0
2017-Nov-14 14:30N 37°57' E 023°36'0 0.0
2017-Nov-14 14:00N 37°57' E 023°36'0 0.0
2017-Nov-14 13:30N 37°57' E 023°36'0 0.0
2017-Nov-14 13:00N 37°57' E 023°36'0 0.0
2017-Nov-14 12:30N 37°57' E 023°36'0 0.0
2017-Nov-14 12:00N 37°57' E 023°36'0 0.0
2017-Nov-14 11:30N 37°57' E 023°36'0 0.0
2017-Nov-14 11:00N 37°57' E 023°36'0 0.0
2017-Nov-14 10:30N 37°57' E 023°36'0 0.0
2017-Nov-14 10:00N 37°57' E 023°36'0 0.0
2017-Nov-14 09:30N 37°57' E 023°36'0 0.0
2017-Nov-14 09:00N 37°57' E 023°36'0 0.0
2017-Nov-14 08:30N 37°57' E 023°36'0 0.0
2017-Nov-14 08:00N 37°57' E 023°36'0 0.0
2017-Nov-14 07:30N 37°57' E 023°36'0 0.0
2017-Nov-14 07:00N 37°57' E 023°36'0 0.0
2017-Nov-14 06:30N 37°57' E 023°36'1 1.5
2017-Nov-14 06:00N 37°57' E 023°35'2 4.5
2017-Nov-14 05:30N 37°55' E 023°36'2 3.3
2017-Nov-14 05:00N 37°53' E 023°35'0 0.2
2017-Nov-14 04:30N 37°53' E 023°35'1 1.8
2017-Nov-14 04:00N 37°53' E 023°36'2 3.9
2017-Nov-14 03:30N 37°52' E 023°38'4 7.1
2017-Nov-14 03:00N 37°49' E 023°40'5 9.6
2017-Nov-14 02:30N 37°44' E 023°43'5 9.9
2017-Nov-14 02:00N 37°40' E 023°45'714.3
2017-Nov-14 01:31N 37°33' E 023°48'915.9
2017-Nov-14 00:58N 37°25' E 023°52'  
Track history (hours):
 
Tides and Currents Weather Stations Pressure Air Temp Water Temp Dewpoint Dewpoint Depression Visibility Wind Speed Wind Dir Waves Ship Positions

MSC Fillippa

Last reported at 2017-Nov-18 18:55 UTC. Time now 2017-Nov-19 06:57 UTC.
Position N 40°55' E 001°43'.

Length 366 m; draft 14.6 m.

Type: Ship (hazmat cat A). MMSI: 636092168.

Date/timePositionNaut miles runAvg speedWind from/ knotsBaromVisibWave heightAir tempDewpointWater temp
2017-Nov-18 18:55N 40°55' E 001°43'614.7
2017-Nov-18 18:29N 40°60' E 001°49'714.9
2017-Nov-18 18:00N 41°05' E 001°56'714.3
2017-Nov-18 17:31N 41°10' E 002°02'713.5
2017-Nov-18 17:00N 41°15' E 002°08'4 5.5
2017-Nov-18 16:17N 41°19' E 002°09'1 0.1
2017-Nov-18 09:45N 41°18' E 002°09'0 0.0
2017-Nov-18 07:12N 41°18' E 002°09'0 0.0
2017-Nov-18 07:00N 41°18' E 002°09'0 0.0
2017-Nov-18 06:23N 41°18' E 002°09'0 0.0
2017-Nov-18 05:28N 41°18' E 002°09'0 0.5
2017-Nov-18 04:58N 41°19' E 002°09'1 1.7
2017-Nov-18 04:22N 41°19' E 002°10'2 4.2
2017-Nov-18 03:58N 41°17' E 002°11'61114.2
2017-Nov-16 08:53N 36°36' E 013°48'815.0
2017-Nov-16 08:23N 36°34' E 013°57'615.1
2017-Nov-16 08:00N 36°32' E 014°04'815.3
2017-Nov-16 07:30N 36°30' E 014°13'815.1
2017-Nov-16 07:00N 36°27' E 014°22'715.0
2017-Nov-16 06:30N 36°25' E 014°31'814.8
2017-Nov-16 06:00N 36°24' E 014°40'714.8
2017-Nov-16 05:30N 36°24' E 014°49'41016.0
2017-Nov-15 03:56N 36°34' E 023°19'1019.1
2017-Nov-15 03:24N 36°43' E 023°24'4518.6
2017-Nov-15 00:59N 37°26' E 023°43'918.4
2017-Nov-15 00:31N 37°34' E 023°44'918.7
2017-Nov-15 00:00N 37°43' E 023°40'918.1
2017-Nov-14 23:30N 37°51' E 023°36'510.7
2017-Nov-14 23:00N 37°57' E 023°36'1 1.5
2017-Nov-14 22:30N 37°57' E 023°36'0 0.1
2017-Nov-14 21:59N 37°57' E 023°36'0 0.0
2017-Nov-14 21:29N 37°57' E 023°36'0 0.0
2017-Nov-14 20:59N 37°57' E 023°36'0 0.0
2017-Nov-14 20:29N 37°57' E 023°36'0 0.0
2017-Nov-14 19:59N 37°57' E 023°36'0 0.0
2017-Nov-14 19:29N 37°57' E 023°36'0 0.0
2017-Nov-14 19:00N 37°57' E 023°36'0 0.0
2017-Nov-14 18:30N 37°57' E 023°36'0 0.0
2017-Nov-14 18:00N 37°57' E 023°36'0 0.0
2017-Nov-14 17:30N 37°57' E 023°36'0 0.0
2017-Nov-14 17:00N 37°57' E 023°36'0 0.0
2017-Nov-14 16:30N 37°57' E 023°36'0 0.0
2017-Nov-14 16:00N 37°57' E 023°36'0 0.0
2017-Nov-14 15:30N 37°57' E 023°36'0 0.0
2017-Nov-14 15:00N 37°57' E 023°36'0 0.0
2017-Nov-14 14:30N 37°57' E 023°36'0 0.0
2017-Nov-14 14:00N 37°57' E 023°36'0 0.0
2017-Nov-14 13:30N 37°57' E 023°36'0 0.0
2017-Nov-14 13:00N 37°57' E 023°36'0 0.0
2017-Nov-14 12:30N 37°57' E 023°36'0 0.0
2017-Nov-14 12:00N 37°57' E 023°36'0 0.0
2017-Nov-14 11:30N 37°57' E 023°36'0 0.0
2017-Nov-14 11:00N 37°57' E 023°36'0 0.0
2017-Nov-14 10:30N 37°57' E 023°36'0 0.0
2017-Nov-14 10:00N 37°57' E 023°36'0 0.0
2017-Nov-14 09:30N 37°57' E 023°36'0 0.0
2017-Nov-14 09:00N 37°57' E 023°36'0 0.0
2017-Nov-14 08:30N 37°57' E 023°36'0 0.0
2017-Nov-14 08:00N 37°57' E 023°36'0 0.0
2017-Nov-14 07:30N 37°57' E 023°36'0 0.0
2017-Nov-14 07:00N 37°57' E 023°36'0 0.0
2017-Nov-14 06:30N 37°57' E 023°36'1 1.5
2017-Nov-14 06:00N 37°57' E 023°35'2 4.5
2017-Nov-14 05:30N 37°55' E 023°36'2 3.3
2017-Nov-14 05:00N 37°53' E 023°35'0 0.2
2017-Nov-14 04:30N 37°53' E 023°35'1 1.8
2017-Nov-14 04:00N 37°53' E 023°36'2 3.9
2017-Nov-14 03:30N 37°52' E 023°38'4 7.1
2017-Nov-14 03:00N 37°49' E 023°40'5 9.6
2017-Nov-14 02:30N 37°44' E 023°43'5 9.9
2017-Nov-14 02:00N 37°40' E 023°45'714.3
2017-Nov-14 01:31N 37°33' E 023°48'915.9
2017-Nov-14 00:58N 37°25' E 023°52'  

Dump ship's entire track history